sensor_id;sensor_type;location;lat;lon;timestamp;temperature;humidity
16347;DHT22;8283;48.504;13.734;2023-08-21T00:02:35;24.40;67.30
16347;DHT22;8283;48.504;13.734;2023-08-21T00:05:19;24.40;67.50
16347;DHT22;8283;48.504;13.734;2023-08-21T00:08:04;24.40;67.70
16347;DHT22;8283;48.504;13.734;2023-08-21T00:10:48;24.30;67.80
16347;DHT22;8283;48.504;13.734;2023-08-21T00:13:32;24.30;67.80
16347;DHT22;8283;48.504;13.734;2023-08-21T00:16:17;24.20;67.80
16347;DHT22;8283;48.504;13.734;2023-08-21T00:19:02;24.20;67.90
16347;DHT22;8283;48.504;13.734;2023-08-21T00:21:46;24.20;68.10
16347;DHT22;8283;48.504;13.734;2023-08-21T00:24:31;24.10;68.20
16347;DHT22;8283;48.504;13.734;2023-08-21T00:27:15;24.10;68.40
16347;DHT22;8283;48.504;13.734;2023-08-21T00:30:00;24.10;68.60
16347;DHT22;8283;48.504;13.734;2023-08-21T00:32:45;24.00;68.80
16347;DHT22;8283;48.504;13.734;2023-08-21T00:35:29;24.00;68.80
16347;DHT22;8283;48.504;13.734;2023-08-21T00:38:14;24.00;68.90
16347;DHT22;8283;48.504;13.734;2023-08-21T00:40:59;23.90;69.00
16347;DHT22;8283;48.504;13.734;2023-08-21T00:43:44;23.90;69.10
16347;DHT22;8283;48.504;13.734;2023-08-21T00:46:30;23.90;69.30
16347;DHT22;8283;48.504;13.734;2023-08-21T00:49:14;23.90;69.50
16347;DHT22;8283;48.504;13.734;2023-08-21T00:51:59;23.90;69.60
16347;DHT22;8283;48.504;13.734;2023-08-21T00:54:44;23.90;69.80
16347;DHT22;8283;48.504;13.734;2023-08-21T00:57:29;23.80;69.70
16347;DHT22;8283;48.504;13.734;2023-08-21T01:00:13;23.80;70.00
16347;DHT22;8283;48.504;13.734;2023-08-21T01:02:58;23.80;70.20
16347;DHT22;8283;48.504;13.734;2023-08-21T01:05:42;23.90;70.40
16347;DHT22;8283;48.504;13.734;2023-08-21T01:08:46;23.80;70.50
16347;DHT22;8283;48.504;13.734;2023-08-21T01:11:49;23.80;72.60
16347;DHT22;8283;48.504;13.734;2023-08-21T01:15:00;23.80;72.00
16347;DHT22;8283;48.504;13.734;2023-08-21T01:17:48;23.80;72.40
16347;DHT22;8283;48.504;13.734;2023-08-21T01:20:33;23.80;70.40
16347;DHT22;8283;48.504;13.734;2023-08-21T01:23:36;23.80;70.60
16347;DHT22;8283;48.504;13.734;2023-08-21T01:26:21;23.80;72.80
16347;DHT22;8283;48.504;13.734;2023-08-21T01:29:05;23.70;70.80
16347;DHT22;8283;48.504;13.734;2023-08-21T01:32:09;23.60;70.90
16347;DHT22;8283;48.504;13.734;2023-08-21T01:34:55;23.70;73.20
16347;DHT22;8283;48.504;13.734;2023-08-21T01:37:40;23.70;71.40
16347;DHT22;8283;48.504;13.734;2023-08-21T01:40:25;23.60;71.40
16347;DHT22;8283;48.504;13.734;2023-08-21T01:43:09;23.60;71.60
16347;DHT22;8283;48.504;13.734;2023-08-21T01:45:54;23.60;71.60
16347;DHT22;8283;48.504;13.734;2023-08-21T01:48:39;23.60;71.70
16347;DHT22;8283;48.504;13.734;2023-08-21T01:51:23;23.70;71.70
16347;DHT22;8283;48.504;13.734;2023-08-21T01:54:07;23.60;71.70
16347;DHT22;8283;48.504;13.734;2023-08-21T01:56:51;23.50;71.70
16347;DHT22;8283;48.504;13.734;2023-08-21T01:59:35;23.50;71.80
16347;DHT22;8283;48.504;13.734;2023-08-21T02:02:20;23.50;71.90
16347;DHT22;8283;48.504;13.734;2023-08-21T02:05:05;23.50;72.10
16347;DHT22;8283;48.504;13.734;2023-08-21T02:07:50;23.50;72.40
16347;DHT22;8283;48.504;13.734;2023-08-21T02:10:34;23.50;72.50
16347;DHT22;8283;48.504;13.734;2023-08-21T02:13:19;23.50;72.60
16347;DHT22;8283;48.504;13.734;2023-08-21T02:16:04;23.40;72.70
16347;DHT22;8283;48.504;13.734;2023-08-21T02:18:48;23.40;72.70
16347;DHT22;8283;48.504;13.734;2023-08-21T02:21:34;23.40;72.80
16347;DHT22;8283;48.504;13.734;2023-08-21T02:24:20;23.40;73.30
16347;DHT22;8283;48.504;13.734;2023-08-21T02:27:05;23.30;72.80
16347;DHT22;8283;48.504;13.734;2023-08-21T02:29:49;23.30;72.80
16347;DHT22;8283;48.504;13.734;2023-08-21T02:32:33;23.30;73.00
16347;DHT22;8283;48.504;13.734;2023-08-21T02:35:19;23.30;73.10
16347;DHT22;8283;48.504;13.734;2023-08-21T02:38:03;23.30;73.20
16347;DHT22;8283;48.504;13.734;2023-08-21T02:40:48;23.30;73.30
16347;DHT22;8283;48.504;13.734;2023-08-21T02:43:34;23.20;73.40
16347;DHT22;8283;48.504;13.734;2023-08-21T02:46:18;23.30;73.60
16347;DHT22;8283;48.504;13.734;2023-08-21T02:49:02;23.20;73.50
16347;DHT22;8283;48.504;13.734;2023-08-21T02:51:46;23.20;73.70
16347;DHT22;8283;48.504;13.734;2023-08-21T02:54:31;23.20;73.80
16347;DHT22;8283;48.504;13.734;2023-08-21T02:57:15;23.10;73.90
16347;DHT22;8283;48.504;13.734;2023-08-21T02:59:59;23.00;74.00
16347;DHT22;8283;48.504;13.734;2023-08-21T03:02:43;23.00;74.20
16347;DHT22;8283;48.504;13.734;2023-08-21T03:05:28;22.90;74.30
16347;DHT22;8283;48.504;13.734;2023-08-21T03:08:12;22.90;74.50
16347;DHT22;8283;48.504;13.734;2023-08-21T03:10:56;22.90;74.70
16347;DHT22;8283;48.504;13.734;2023-08-21T03:13:40;22.90;74.90
16347;DHT22;8283;48.504;13.734;2023-08-21T03:16:25;22.90;75.00
16347;DHT22;8283;48.504;13.734;2023-08-21T03:19:10;22.80;75.20
16347;DHT22;8283;48.504;13.734;2023-08-21T03:21:54;22.80;75.30
16347;DHT22;8283;48.504;13.734;2023-08-21T03:24:39;22.80;75.40
16347;DHT22;8283;48.504;13.734;2023-08-21T03:27:24;22.80;75.50
16347;DHT22;8283;48.504;13.734;2023-08-21T03:30:09;22.80;75.80
16347;DHT22;8283;48.504;13.734;2023-08-21T03:32:54;22.80;75.70
16347;DHT22;8283;48.504;13.734;2023-08-21T03:35:39;22.80;75.70
16347;DHT22;8283;48.504;13.734;2023-08-21T03:38:23;22.70;75.80
16347;DHT22;8283;48.504;13.734;2023-08-21T03:41:08;22.70;76.00
16347;DHT22;8283;48.504;13.734;2023-08-21T03:43:53;22.70;76.10
16347;DHT22;8283;48.504;13.734;2023-08-21T03:46:37;22.70;76.40
16347;DHT22;8283;48.504;13.734;2023-08-21T03:49:22;22.80;76.50
16347;DHT22;8283;48.504;13.734;2023-08-21T03:52:07;22.60;76.60
16347;DHT22;8283;48.504;13.734;2023-08-21T03:54:51;22.60;76.80
16347;DHT22;8283;48.504;13.734;2023-08-21T03:57:35;22.60;76.90
16347;DHT22;8283;48.504;13.734;2023-08-21T04:00:19;22.60;77.20
16347;DHT22;8283;48.504;13.734;2023-08-21T04:03:05;22.50;77.30
16347;DHT22;8283;48.504;13.734;2023-08-21T04:05:49;22.50;77.40
16347;DHT22;8283;48.504;13.734;2023-08-21T04:08:35;22.50;77.60
16347;DHT22;8283;48.504;13.734;2023-08-21T04:11:19;22.50;77.80
16347;DHT22;8283;48.504;13.734;2023-08-21T04:14:04;22.50;77.90
16347;DHT22;8283;48.504;13.734;2023-08-21T04:16:48;22.50;78.00
16347;DHT22;8283;48.504;13.734;2023-08-21T04:19:32;22.60;78.10
16347;DHT22;8283;48.504;13.734;2023-08-21T04:22:19;22.50;78.20
16347;DHT22;8283;48.504;13.734;2023-08-21T04:25:04;22.50;78.30
16347;DHT22;8283;48.504;13.734;2023-08-21T04:27:48;22.50;78.40
16347;DHT22;8283;48.504;13.734;2023-08-21T04:30:33;22.50;78.40
16347;DHT22;8283;48.504;13.734;2023-08-21T04:33:18;22.50;78.60
16347;DHT22;8283;48.504;13.734;2023-08-21T04:36:02;22.50;78.70
16347;DHT22;8283;48.504;13.734;2023-08-21T04:38:47;22.50;78.80
16347;DHT22;8283;48.504;13.734;2023-08-21T04:41:31;22.50;78.90
16347;DHT22;8283;48.504;13.734;2023-08-21T04:44:17;22.50;79.10
16347;DHT22;8283;48.504;13.734;2023-08-21T04:47:24;22.60;79.30
16347;DHT22;8283;48.504;13.734;2023-08-21T04:50:12;22.60;81.70
16347;DHT22;8283;48.504;13.734;2023-08-21T04:52:56;22.60;79.50
16347;DHT22;8283;48.504;13.734;2023-08-21T04:55:41;22.60;79.50
16347;DHT22;8283;48.504;13.734;2023-08-21T04:58:26;22.70;79.80
16347;DHT22;8283;48.504;13.734;2023-08-21T05:01:11;22.70;79.80
16347;DHT22;8283;48.504;13.734;2023-08-21T05:04:01;22.70;79.80
16347;DHT22;8283;48.504;13.734;2023-08-21T05:06:46;22.80;79.90
16347;DHT22;8283;48.504;13.734;2023-08-21T05:09:31;22.80;79.90
16347;DHT22;8283;48.504;13.734;2023-08-21T05:12:15;22.80;80.00
16347;DHT22;8283;48.504;13.734;2023-08-21T05:14:59;22.80;79.90
16347;DHT22;8283;48.504;13.734;2023-08-21T05:17:45;22.80;79.90
16347;DHT22;8283;48.504;13.734;2023-08-21T05:20:29;22.90;79.90
16347;DHT22;8283;48.504;13.734;2023-08-21T05:23:15;22.80;79.90
16347;DHT22;8283;48.504;13.734;2023-08-21T05:26:02;22.90;80.20
16347;DHT22;8283;48.504;13.734;2023-08-21T05:28:47;22.90;80.20
16347;DHT22;8283;48.504;13.734;2023-08-21T05:31:31;22.90;80.30
16347;DHT22;8283;48.504;13.734;2023-08-21T05:34:16;22.90;80.60
16347;DHT22;8283;48.504;13.734;2023-08-21T05:37:00;23.00;80.40
16347;DHT22;8283;48.504;13.734;2023-08-21T05:39:45;23.00;80.50
16347;DHT22;8283;48.504;13.734;2023-08-21T05:42:30;23.00;80.50
16347;DHT22;8283;48.504;13.734;2023-08-21T05:45:14;23.10;80.60
16347;DHT22;8283;48.504;13.734;2023-08-21T05:47:59;23.00;80.60
16347;DHT22;8283;48.504;13.734;2023-08-21T05:50:43;23.10;80.70
16347;DHT22;8283;48.504;13.734;2023-08-21T05:53:27;23.10;80.80
16347;DHT22;8283;48.504;13.734;2023-08-21T05:56:12;23.10;80.80
16347;DHT22;8283;48.504;13.734;2023-08-21T05:58:56;23.20;80.90
16347;DHT22;8283;48.504;13.734;2023-08-21T06:01:43;23.20;81.00
16347;DHT22;8283;48.504;13.734;2023-08-21T06:04:28;23.20;81.00
16347;DHT22;8283;48.504;13.734;2023-08-21T06:07:18;23.30;81.30
16347;DHT22;8283;48.504;13.734;2023-08-21T06:10:02;23.30;81.80
16347;DHT22;8283;48.504;13.734;2023-08-21T06:12:49;23.40;82.40
16347;DHT22;8283;48.504;13.734;2023-08-21T06:15:34;23.50;83.00
16347;DHT22;8283;48.504;13.734;2023-08-21T06:18:18;23.60;83.30
16347;DHT22;8283;48.504;13.734;2023-08-21T06:21:03;23.90;83.60
16347;DHT22;8283;48.504;13.734;2023-08-21T06:23:48;24.10;83.70
16347;DHT22;8283;48.504;13.734;2023-08-21T06:26:32;24.30;83.70
16347;DHT22;8283;48.504;13.734;2023-08-21T06:29:17;24.50;83.70
16347;DHT22;8283;48.504;13.734;2023-08-21T06:32:02;24.70;83.50
16347;DHT22;8283;48.504;13.734;2023-08-21T06:34:47;24.90;83.40
16347;DHT22;8283;48.504;13.734;2023-08-21T06:37:31;25.10;83.20
16347;DHT22;8283;48.504;13.734;2023-08-21T06:40:16;25.30;82.80
16347;DHT22;8283;48.504;13.734;2023-08-21T06:43:02;25.50;82.40
16347;DHT22;8283;48.504;13.734;2023-08-21T06:45:51;25.70;82.30
16347;DHT22;8283;48.504;13.734;2023-08-21T06:48:38;25.90;82.00
16347;DHT22;8283;48.504;13.734;2023-08-21T06:51:22;26.10;82.00
16347;DHT22;8283;48.504;13.734;2023-08-21T06:54:07;26.20;81.90
16347;DHT22;8283;48.504;13.734;2023-08-21T06:56:51;26.40;81.70
16347;DHT22;8283;48.504;13.734;2023-08-21T06:59:36;26.60;81.50
16347;DHT22;8283;48.504;13.734;2023-08-21T07:02:20;26.80;81.20
16347;DHT22;8283;48.504;13.734;2023-08-21T07:05:05;27.10;80.80
16347;DHT22;8283;48.504;13.734;2023-08-21T07:07:49;27.30;80.50
16347;DHT22;8283;48.504;13.734;2023-08-21T07:10:37;27.40;80.80
16347;DHT22;8283;48.504;13.734;2023-08-21T07:13:21;27.70;80.30
16347;DHT22;8283;48.504;13.734;2023-08-21T07:16:06;27.90;80.80
16347;DHT22;8283;48.504;13.734;2023-08-21T07:18:53;28.20;80.30
16347;DHT22;8283;48.504;13.734;2023-08-21T07:21:37;28.50;80.20
16347;DHT22;8283;48.504;13.734;2023-08-21T07:24:22;28.70;79.90
16347;DHT22;8283;48.504;13.734;2023-08-21T07:27:07;29.00;79.60
16347;DHT22;8283;48.504;13.734;2023-08-21T07:29:51;29.20;79.00
16347;DHT22;8283;48.504;13.734;2023-08-21T07:32:36;29.40;78.50
16347;DHT22;8283;48.504;13.734;2023-08-21T07:35:21;29.70;78.00
16347;DHT22;8283;48.504;13.734;2023-08-21T07:38:05;29.90;77.60
16347;DHT22;8283;48.504;13.734;2023-08-21T07:40:49;30.20;77.50
16347;DHT22;8283;48.504;13.734;2023-08-21T07:43:34;30.40;76.30
16347;DHT22;8283;48.504;13.734;2023-08-21T07:46:18;30.60;76.00
16347;DHT22;8283;48.504;13.734;2023-08-21T07:49:03;30.80;75.30
16347;DHT22;8283;48.504;13.734;2023-08-21T07:51:47;31.00;75.20
16347;DHT22;8283;48.504;13.734;2023-08-21T07:54:31;31.20;74.10
16347;DHT22;8283;48.504;13.734;2023-08-21T07:57:15;31.40;73.80
16347;DHT22;8283;48.504;13.734;2023-08-21T08:00:01;31.50;73.30
16347;DHT22;8283;48.504;13.734;2023-08-21T08:02:45;31.70;72.50
16347;DHT22;8283;48.504;13.734;2023-08-21T08:05:30;31.90;72.10
16347;DHT22;8283;48.504;13.734;2023-08-21T08:08:16;32.10;71.00
16347;DHT22;8283;48.504;13.734;2023-08-21T08:11:02;32.20;69.60
16347;DHT22;8283;48.504;13.734;2023-08-21T08:13:47;32.30;69.80
16347;DHT22;8283;48.504;13.734;2023-08-21T08:16:31;32.50;69.80
16347;DHT22;8283;48.504;13.734;2023-08-21T08:19:16;32.60;69.50
16347;DHT22;8283;48.504;13.734;2023-08-21T08:22:00;32.80;69.50
16347;DHT22;8283;48.504;13.734;2023-08-21T08:24:44;33.00;69.30
16347;DHT22;8283;48.504;13.734;2023-08-21T08:27:29;33.20;68.80
16347;DHT22;8283;48.504;13.734;2023-08-21T08:30:13;33.40;68.60
16347;DHT22;8283;48.504;13.734;2023-08-21T08:32:57;33.60;67.90
16347;DHT22;8283;48.504;13.734;2023-08-21T08:35:42;33.80;67.50
16347;DHT22;8283;48.504;13.734;2023-08-21T08:38:27;34.00;66.80
16347;DHT22;8283;48.504;13.734;2023-08-21T08:41:25;34.20;66.50
16347;DHT22;8283;48.504;13.734;2023-08-21T08:44:15;34.30;65.00
16347;DHT22;8283;48.504;13.734;2023-08-21T08:47:01;34.50;65.20
16347;DHT22;8283;48.504;13.734;2023-08-21T08:49:47;34.70;65.20
16347;DHT22;8283;48.504;13.734;2023-08-21T08:52:39;34.90;64.30
16347;DHT22;8283;48.504;13.734;2023-08-21T08:55:24;35.10;62.00
16347;DHT22;8283;48.504;13.734;2023-08-21T08:58:09;35.20;63.40
16347;DHT22;8283;48.504;13.734;2023-08-21T09:00:53;35.40;63.20
16347;DHT22;8283;48.504;13.734;2023-08-21T09:03:37;35.50;62.00
16347;DHT22;8283;48.504;13.734;2023-08-21T09:06:21;35.70;62.00
16347;DHT22;8283;48.504;13.734;2023-08-21T09:09:07;35.90;61.50
16347;DHT22;8283;48.504;13.734;2023-08-21T09:11:51;36.10;61.30
16347;DHT22;8283;48.504;13.734;2023-08-21T09:14:36;36.30;61.30
16347;DHT22;8283;48.504;13.734;2023-08-21T09:17:20;36.50;60.20
16347;DHT22;8283;48.504;13.734;2023-08-21T09:20:06;36.60;60.10
16347;DHT22;8283;48.504;13.734;2023-08-21T09:22:54;36.80;58.40
16347;DHT22;8283;48.504;13.734;2023-08-21T09:25:40;36.90;57.70
16347;DHT22;8283;48.504;13.734;2023-08-21T09:28:25;37.10;58.60
16347;DHT22;8283;48.504;13.734;2023-08-21T09:31:10;37.30;58.30
16347;DHT22;8283;48.504;13.734;2023-08-21T09:34:03;37.40;57.30
16347;DHT22;8283;48.504;13.734;2023-08-21T09:36:56;37.60;55.70
16347;DHT22;8283;48.504;13.734;2023-08-21T09:39:40;37.70;55.80
16347;DHT22;8283;48.504;13.734;2023-08-21T09:42:27;37.80;57.10
16347;DHT22;8283;48.504;13.734;2023-08-21T09:45:11;37.90;56.60
16347;DHT22;8283;48.504;13.734;2023-08-21T09:47:57;38.10;56.50
16347;DHT22;8283;48.504;13.734;2023-08-21T09:50:43;38.30;56.30
16347;DHT22;8283;48.504;13.734;2023-08-21T09:53:28;38.40;55.90
16347;DHT22;8283;48.504;13.734;2023-08-21T09:56:13;38.60;56.10
16347;DHT22;8283;48.504;13.734;2023-08-21T09:58:57;38.80;55.70
16347;DHT22;8283;48.504;13.734;2023-08-21T10:01:42;38.90;55.40
16347;DHT22;8283;48.504;13.734;2023-08-21T10:04:32;39.10;55.20
16347;DHT22;8283;48.504;13.734;2023-08-21T10:07:24;39.30;53.80
16347;DHT22;8283;48.504;13.734;2023-08-21T10:10:12;39.40;53.90
16347;DHT22;8283;48.504;13.734;2023-08-21T10:12:57;39.60;54.10
16347;DHT22;8283;48.504;13.734;2023-08-21T10:15:42;39.80;54.30
16347;DHT22;8283;48.504;13.734;2023-08-21T10:18:35;39.90;54.20
16347;DHT22;8283;48.504;13.734;2023-08-21T10:21:22;40.10;53.10
16347;DHT22;8283;48.504;13.734;2023-08-21T10:24:09;40.20;53.60
16347;DHT22;8283;48.504;13.734;2023-08-21T10:26:53;40.30;53.60
16347;DHT22;8283;48.504;13.734;2023-08-21T10:29:38;40.50;53.00
16347;DHT22;8283;48.504;13.734;2023-08-21T10:32:23;40.60;52.80
16347;DHT22;8283;48.504;13.734;2023-08-21T10:35:23;40.70;52.80
16347;DHT22;8283;48.504;13.734;2023-08-21T10:38:10;40.80;50.60
16347;DHT22;8283;48.504;13.734;2023-08-21T10:41:05;40.80;51.50
16347;DHT22;8283;48.504;13.734;2023-08-21T10:43:50;40.90;49.90
16347;DHT22;8283;48.504;13.734;2023-08-21T10:46:50;40.90;51.00
16347;DHT22;8283;48.504;13.734;2023-08-21T10:49:34;40.90;49.20
16347;DHT22;8283;48.504;13.734;2023-08-21T10:52:27;41.00;50.30
16347;DHT22;8283;48.504;13.734;2023-08-21T10:55:14;41.00;49.30
16347;DHT22;8283;48.504;13.734;2023-08-21T10:57:58;41.10;50.10
16347;DHT22;8283;48.504;13.734;2023-08-21T11:00:42;41.10;50.10
16347;DHT22;8283;48.504;13.734;2023-08-21T11:03:26;41.10;49.50
16347;DHT22;8283;48.504;13.734;2023-08-21T11:06:11;41.10;49.70
16347;DHT22;8283;48.504;13.734;2023-08-21T11:08:56;41.10;50.00
16347;DHT22;8283;48.504;13.734;2023-08-21T11:11:40;41.30;50.20
16347;DHT22;8283;48.504;13.734;2023-08-21T11:14:27;41.30;50.00
16347;DHT22;8283;48.504;13.734;2023-08-21T11:17:12;41.40;49.30
16347;DHT22;8283;48.504;13.734;2023-08-21T11:20:01;41.40;48.90
16347;DHT22;8283;48.504;13.734;2023-08-21T11:22:46;41.50;48.70
16347;DHT22;8283;48.504;13.734;2023-08-21T11:25:30;41.50;48.50
16347;DHT22;8283;48.504;13.734;2023-08-21T11:28:16;41.60;48.40
16347;DHT22;8283;48.504;13.734;2023-08-21T11:31:00;41.60;48.10
16347;DHT22;8283;48.504;13.734;2023-08-21T11:33:51;41.70;47.90
16347;DHT22;8283;48.504;13.734;2023-08-21T11:36:36;41.70;47.50
16347;DHT22;8283;48.504;13.734;2023-08-21T11:39:20;41.80;47.90
16347;DHT22;8283;48.504;13.734;2023-08-21T11:42:09;41.80;48.10
16347;DHT22;8283;48.504;13.734;2023-08-21T11:44:58;41.80;47.70
16347;DHT22;8283;48.504;13.734;2023-08-21T11:47:42;41.90;48.00
16347;DHT22;8283;48.504;13.734;2023-08-21T11:50:27;42.00;48.30
16347;DHT22;8283;48.504;13.734;2023-08-21T11:53:11;42.00;47.60
16347;DHT22;8283;48.504;13.734;2023-08-21T11:55:56;42.10;47.90
16347;DHT22;8283;48.504;13.734;2023-08-21T11:58:42;42.10;47.70
16347;DHT22;8283;48.504;13.734;2023-08-21T12:01:27;42.10;47.40
16347;DHT22;8283;48.504;13.734;2023-08-21T12:04:16;42.20;47.80
16347;DHT22;8283;48.504;13.734;2023-08-21T12:07:02;42.30;48.00
16347;DHT22;8283;48.504;13.734;2023-08-21T12:09:47;42.30;47.70
16347;DHT22;8283;48.504;13.734;2023-08-21T12:12:33;42.30;46.60
16347;DHT22;8283;48.504;13.734;2023-08-21T12:15:17;42.30;47.20
16347;DHT22;8283;48.504;13.734;2023-08-21T12:18:02;42.40;47.00
16347;DHT22;8283;48.504;13.734;2023-08-21T12:20:46;42.40;46.50
16347;DHT22;8283;48.504;13.734;2023-08-21T12:23:30;42.40;46.50
16347;DHT22;8283;48.504;13.734;2023-08-21T12:26:15;42.50;46.90
16347;DHT22;8283;48.504;13.734;2023-08-21T12:29:04;42.50;46.90
16347;DHT22;8283;48.504;13.734;2023-08-21T12:31:48;42.60;47.10
16347;DHT22;8283;48.504;13.734;2023-08-21T12:34:32;42.70;47.20
16347;DHT22;8283;48.504;13.734;2023-08-21T12:37:17;42.70;47.10
16347;DHT22;8283;48.504;13.734;2023-08-21T12:40:01;42.80;47.00
16347;DHT22;8283;48.504;13.734;2023-08-21T12:42:45;42.90;47.30
16347;DHT22;8283;48.504;13.734;2023-08-21T12:45:30;42.90;47.10
16347;DHT22;8283;48.504;13.734;2023-08-21T12:48:14;43.00;47.10
16347;DHT22;8283;48.504;13.734;2023-08-21T12:50:59;43.10;47.20
16347;DHT22;8283;48.504;13.734;2023-08-21T12:53:43;43.10;46.90
16347;DHT22;8283;48.504;13.734;2023-08-21T12:56:27;43.20;46.60
16347;DHT22;8283;48.504;13.734;2023-08-21T12:59:13;43.20;46.20
16347;DHT22;8283;48.504;13.734;2023-08-21T13:02:01;43.30;45.70
16347;DHT22;8283;48.504;13.734;2023-08-21T13:04:46;43.30;45.70
16347;DHT22;8283;48.504;13.734;2023-08-21T13:07:30;43.30;45.70
16347;DHT22;8283;48.504;13.734;2023-08-21T13:10:14;43.30;45.60
16347;DHT22;8283;48.504;13.734;2023-08-21T13:12:58;43.20;45.90
16347;DHT22;8283;48.504;13.734;2023-08-21T13:15:42;43.20;45.70
16347;DHT22;8283;48.504;13.734;2023-08-21T13:18:31;43.20;45.90
16347;DHT22;8283;48.504;13.734;2023-08-21T13:21:15;43.20;45.80
16347;DHT22;8283;48.504;13.734;2023-08-21T13:24:00;43.20;45.40
16347;DHT22;8283;48.504;13.734;2023-08-21T13:26:44;43.20;45.50
16347;DHT22;8283;48.504;13.734;2023-08-21T13:29:29;43.20;45.60
16347;DHT22;8283;48.504;13.734;2023-08-21T13:32:13;43.30;45.80
16347;DHT22;8283;48.504;13.734;2023-08-21T13:34:58;43.30;45.50
16347;DHT22;8283;48.504;13.734;2023-08-21T13:37:42;43.30;45.10
16347;DHT22;8283;48.504;13.734;2023-08-21T13:40:26;43.30;45.00
16347;DHT22;8283;48.504;13.734;2023-08-21T13:43:11;43.30;44.90
16347;DHT22;8283;48.504;13.734;2023-08-21T13:45:56;43.40;45.30
16347;DHT22;8283;48.504;13.734;2023-08-21T13:48:40;43.40;44.60
16347;DHT22;8283;48.504;13.734;2023-08-21T13:51:25;43.40;45.50
16347;DHT22;8283;48.504;13.734;2023-08-21T13:54:09;43.40;45.70
16347;DHT22;8283;48.504;13.734;2023-08-21T13:56:53;43.40;45.30
16347;DHT22;8283;48.504;13.734;2023-08-21T13:59:38;43.50;45.70
16347;DHT22;8283;48.504;13.734;2023-08-21T14:02:23;43.60;46.00
16347;DHT22;8283;48.504;13.734;2023-08-21T14:05:08;43.70;46.40
16347;DHT22;8283;48.504;13.734;2023-08-21T14:07:52;43.80;46.60
16347;DHT22;8283;48.504;13.734;2023-08-21T14:10:37;43.90;46.60
16347;DHT22;8283;48.504;13.734;2023-08-21T14:13:21;43.90;46.00
16347;DHT22;8283;48.504;13.734;2023-08-21T14:16:05;43.90;46.60
16347;DHT22;8283;48.504;13.734;2023-08-21T14:18:50;43.90;46.60
16347;DHT22;8283;48.504;13.734;2023-08-21T14:21:34;43.80;46.40
16347;DHT22;8283;48.504;13.734;2023-08-21T14:24:19;43.80;46.70
16347;DHT22;8283;48.504;13.734;2023-08-21T14:27:03;43.70;46.00
16347;DHT22;8283;48.504;13.734;2023-08-21T14:29:47;43.60;46.20
16347;DHT22;8283;48.504;13.734;2023-08-21T14:32:32;43.50;46.70
16347;DHT22;8283;48.504;13.734;2023-08-21T14:35:16;43.40;46.90
16347;DHT22;8283;48.504;13.734;2023-08-21T14:38:00;43.30;46.90
16347;DHT22;8283;48.504;13.734;2023-08-21T14:40:45;43.20;46.90
16347;DHT22;8283;48.504;13.734;2023-08-21T14:43:30;43.20;47.10
16347;DHT22;8283;48.504;13.734;2023-08-21T14:46:16;43.10;47.10
16347;DHT22;8283;48.504;13.734;2023-08-21T14:49:00;42.90;46.90
16347;DHT22;8283;48.504;13.734;2023-08-21T14:51:45;42.80;46.80
16347;DHT22;8283;48.504;13.734;2023-08-21T14:54:29;42.60;47.00
16347;DHT22;8283;48.504;13.734;2023-08-21T14:57:13;42.30;47.20
16347;DHT22;8283;48.504;13.734;2023-08-21T14:59:58;42.10;47.00
16347;DHT22;8283;48.504;13.734;2023-08-21T15:02:42;41.80;47.00
16347;DHT22;8283;48.504;13.734;2023-08-21T15:05:27;41.60;47.00
16347;DHT22;8283;48.504;13.734;2023-08-21T15:08:12;41.30;47.50
16347;DHT22;8283;48.504;13.734;2023-08-21T15:10:56;41.10;47.30
16347;DHT22;8283;48.504;13.734;2023-08-21T15:13:41;40.80;48.00
16347;DHT22;8283;48.504;13.734;2023-08-21T15:16:25;40.60;47.30
16347;DHT22;8283;48.504;13.734;2023-08-21T15:19:09;40.40;47.70
16347;DHT22;8283;48.504;13.734;2023-08-21T15:21:53;40.30;47.50
16347;DHT22;8283;48.504;13.734;2023-08-21T15:24:37;40.10;47.50
16347;DHT22;8283;48.504;13.734;2023-08-21T15:27:22;40.00;47.70
16347;DHT22;8283;48.504;13.734;2023-08-21T15:30:07;39.90;47.80
16347;DHT22;8283;48.504;13.734;2023-08-21T15:32:51;39.80;47.90
16347;DHT22;8283;48.504;13.734;2023-08-21T15:35:36;39.80;47.70
16347;DHT22;8283;48.504;13.734;2023-08-21T15:38:20;39.80;47.50
16347;DHT22;8283;48.504;13.734;2023-08-21T15:41:04;39.70;47.50
16347;DHT22;8283;48.504;13.734;2023-08-21T15:43:49;39.60;47.60
16347;DHT22;8283;48.504;13.734;2023-08-21T15:46:33;39.50;47.50
16347;DHT22;8283;48.504;13.734;2023-08-21T15:49:18;39.30;47.30
16347;DHT22;8283;48.504;13.734;2023-08-21T15:52:03;39.30;47.40
16347;DHT22;8283;48.504;13.734;2023-08-21T15:54:48;39.20;47.40
16347;DHT22;8283;48.504;13.734;2023-08-21T15:57:35;39.10;47.20
16347;DHT22;8283;48.504;13.734;2023-08-21T16:00:20;38.90;47.20
16347;DHT22;8283;48.504;13.734;2023-08-21T16:03:07;38.80;47.30
16347;DHT22;8283;48.504;13.734;2023-08-21T16:05:51;38.70;47.20
16347;DHT22;8283;48.504;13.734;2023-08-21T16:08:39;38.60;47.20
16347;DHT22;8283;48.504;13.734;2023-08-21T16:11:23;38.40;47.20
16347;DHT22;8283;48.504;13.734;2023-08-21T16:14:07;38.30;47.10
16347;DHT22;8283;48.504;13.734;2023-08-21T16:16:52;38.10;47.00
16347;DHT22;8283;48.504;13.734;2023-08-21T16:19:38;37.80;46.90
16347;DHT22;8283;48.504;13.734;2023-08-21T16:22:23;37.60;47.00
16347;DHT22;8283;48.504;13.734;2023-08-21T16:25:07;37.30;47.00
16347;DHT22;8283;48.504;13.734;2023-08-21T16:27:52;37.10;47.00
16347;DHT22;8283;48.504;13.734;2023-08-21T16:30:37;36.80;47.20
16347;DHT22;8283;48.504;13.734;2023-08-21T16:33:21;36.60;47.30
16347;DHT22;8283;48.504;13.734;2023-08-21T16:36:05;36.30;47.40
16347;DHT22;8283;48.504;13.734;2023-08-21T16:38:50;36.10;47.70
16347;DHT22;8283;48.504;13.734;2023-08-21T16:41:34;35.80;48.00
16347;DHT22;8283;48.504;13.734;2023-08-21T16:44:18;35.60;48.00
16347;DHT22;8283;48.504;13.734;2023-08-21T16:47:05;35.40;48.00
16347;DHT22;8283;48.504;13.734;2023-08-21T16:49:51;35.20;48.20
16347;DHT22;8283;48.504;13.734;2023-08-21T16:52:36;35.00;48.40
16347;DHT22;8283;48.504;13.734;2023-08-21T16:55:20;34.90;48.60
16347;DHT22;8283;48.504;13.734;2023-08-21T16:58:04;34.70;48.70
16347;DHT22;8283;48.504;13.734;2023-08-21T17:00:51;34.50;48.90
16347;DHT22;8283;48.504;13.734;2023-08-21T17:03:37;34.40;49.20
16347;DHT22;8283;48.504;13.734;2023-08-21T17:06:22;34.20;49.20
16347;DHT22;8283;48.504;13.734;2023-08-21T17:09:07;34.10;49.30
16347;DHT22;8283;48.504;13.734;2023-08-21T17:11:51;34.00;49.50
16347;DHT22;8283;48.504;13.734;2023-08-21T17:14:35;33.80;49.50
16347;DHT22;8283;48.504;13.734;2023-08-21T17:17:20;33.80;49.70
16347;DHT22;8283;48.504;13.734;2023-08-21T17:20:04;33.60;49.80
16347;DHT22;8283;48.504;13.734;2023-08-21T17:22:49;33.50;50.00
16347;DHT22;8283;48.504;13.734;2023-08-21T17:25:33;33.40;50.10